Terminal Aerodrome Forecast
Issued by NWS

Home | Current Version | Previous Version | Text Only | Print | Product List | Glossary On
Versions: 1 2 3 4 5 6 7 8 9 10 11 12 13
000
FTUS46 KMTR 031100
TAFSJC
TAF
KSJC 031131Z 0312/0412 17003KT P6SM SKC
     FM031800 27004KT P6SM SKC
     FM032000 30008KT P6SM FEW200
     FM032200 30014KT P6SM FEW200
     FM040400 VRB03KT P6SM FEW200=

USA.gov is the U.S. government's official web portal to all federal, state and local government web resources and services.